Ellenburg Center, New York
Current Conditions -  °F | °C
As of 3:53 AM on Thursday 23 Oct 2014 (Local Time) from KPBG Reporting Station
Overcast Overcast  
Wind Chill: 36°   Ceiling: 3900
Heat Index: 44°   Visibility: 10mi
Dew Point: 35°   Wind: 20mph
Humidity: 71%   Direction: 350°N
Pressure: 30.05"   Gusts: 28mph
Location:  44.86°N, 73.9°W
Report Text: KPBG 230753Z AUTO 35017G24KT 10SM OVC039 07/02 A3005 RMK AO2 SLP177 T00670017
Loading
Personal Weather Stations






























Interactive Weather Map
Tropical Storm Tracking
New forecast layout! Learn more

10-Day Weather Forecast

Advertisements
Track Severe Weather on mobile